Time;durP1;ratioP1;P1;durP2;ratioP2;P2;SDS_P1;SDS_P2;PMS_P1;PMS_P2;Temp;Humidity;BMP_temperature;BMP_pressure;BME280_temperature;BME280_humidity;BME280_pressure;Samples;Min_cycle;Max_cycle;Signal;HPM_P1;HPM_P2
2024/01/31 00:01:45;;;;;;;44.65;34.40;;;6.70;95.10;;;;;;6278316;22;19988;-92
2024/01/31 00:04:11;;;;;;;42.28;31.27;;;6.70;95.20;;;;;;6277782;22;20004;-92
2024/01/31 00:06:36;;;;;;;45.80;33.90;;;6.70;95.20;;;;;;6250561;22;20082;-92
2024/01/31 00:09:03;;;;;;;43.40;33.00;;;6.60;95.20;;;;;;6278486;22;20004;-92
2024/01/31 00:11:29;;;;;;;48.95;35.50;;;6.60;95.30;;;;;;6251097;22;20385;-92
2024/01/31 00:13:58;;;;;;;48.03;34.58;;;6.60;95.30;;;;;;6278334;22;20000;-92
2024/01/31 00:16:24;;;;;;;45.67;33.38;;;6.60;95.30;;;;;;6278073;22;19999;-93
2024/01/31 00:18:50;;;;;;;47.00;34.72;;;6.60;95.30;;;;;;6249967;22;20019;-90
2024/01/31 00:21:18;;;;;;;47.42;34.55;;;6.50;95.40;;;;;;6276780;22;20004;-91
2024/01/31 00:23:45;;;;;;;44.55;33.35;;;6.60;95.40;;;;;;6250687;22;20008;-91
2024/01/31 00:26:11;;;;;;;44.42;33.63;;;6.50;95.30;;;;;;6277233;22;20054;-91
2024/01/31 00:28:37;;;;;;;45.75;34.88;;;6.50;95.40;;;;;;6276852;22;20008;-92
2024/01/31 00:31:03;;;;;;;42.85;32.42;;;6.50;95.40;;;;;;6277691;22;20004;-94
2024/01/31 00:33:28;;;;;;;43.72;32.67;;;6.40;95.40;;;;;;6277889;22;20426;-96
2024/01/31 00:35:55;;;;;;;43.92;33.78;;;6.40;95.50;;;;;;6251030;22;20004;-95
2024/01/31 00:38:53;;;;;;;45.50;32.78;;;6.40;95.50;;;;;;6214493;23;20043;-95
2024/01/31 00:41:19;;;;;;;41.50;31.38;;;6.30;95.60;;;;;;6277935;22;19996;-93
2024/01/31 00:43:45;;;;;;;43.85;32.35;;;6.30;95.60;;;;;;6249981;22;20011;-94
2024/01/31 00:46:10;;;;;;;43.20;33.17;;;6.30;95.80;;;;;;6277911;22;20070;-96
2024/01/31 00:48:36;;;;;;;42.75;31.88;;;6.30;95.80;;;;;;6277941;22;20019;-94
2024/01/31 00:51:02;;;;;;;42.83;31.33;;;6.40;95.70;;;;;;6251145;22;20007;-95
2024/01/31 00:53:28;;;;;;;40.80;30.92;;;6.40;95.60;;;;;;6250194;22;20035;-94
2024/01/31 00:55:53;;;;;;;41.90;31.38;;;6.30;95.50;;;;;;6277250;22;20000;-91
2024/01/31 00:58:19;;;;;;;38.60;30.08;;;6.30;95.60;;;;;;6249807;22;20008;-89
2024/01/31 01:00:44;;;;;;;41.38;31.70;;;6.20;95.70;;;;;;6277211;22;20007;-89
2024/01/31 01:03:10;;;;;;;41.03;30.55;;;6.20;95.80;;;;;;6276981;22;19996;-89
2024/01/31 01:05:36;;;;;;;42.63;31.17;;;6.20;95.70;;;;;;6277088;22;20061;-90
2024/01/31 01:08:02;;;;;;;42.47;31.17;;;6.30;95.80;;;;;;6277207;22;19999;-91
2024/01/31 01:10:28;;;;;;;37.40;28.73;;;6.30;95.80;;;;;;6277183;22;20007;-91
2024/01/31 01:12:54;;;;;;;43.00;32.13;;;6.30;95.70;;;;;;6250696;22;20035;-90
2024/01/31 01:15:20;;;;;;;41.13;31.13;;;6.30;95.70;;;;;;6249723;22;20007;-89
2024/01/31 01:17:45;;;;;;;42.22;32.05;;;6.20;95.70;;;;;;6277085;22;20334;-89
2024/01/31 01:20:11;;;;;;;40.35;31.13;;;6.20;95.70;;;;;;6250179;22;20057;-90
2024/01/31 01:22:38;;;;;;;43.92;33.78;;;6.20;95.80;;;;;;6277297;22;20000;-89
2024/01/31 01:25:04;;;;;;;40.90;31.17;;;6.00;95.90;;;;;;6249666;22;20086;-89
2024/01/31 01:27:30;;;;;;;36.38;28.35;;;5.90;96.00;;;;;;6250158;22;20004;-90
2024/01/31 01:29:56;;;;;;;39.58;29.08;;;5.90;96.20;;;;;;6276901;22;20008;-89
2024/01/31 01:32:21;;;;;;;45.45;32.60;;;5.90;96.10;;;;;;6276651;22;19999;-91
2024/01/31 01:34:47;;;;;;;40.30;29.65;;;5.90;96.10;;;;;;6277139;22;20003;-89
2024/01/31 01:37:13;;;;;;;35.80;29.23;;;5.90;96.00;;;;;;6277367;22;20291;-88
2024/01/31 01:39:39;;;;;;;39.38;29.63;;;5.90;96.00;;;;;;6277294;22;20052;-89
2024/01/31 01:42:05;;;;;;;44.05;32.00;;;5.90;96.00;;;;;;6277026;22;20461;-89
2024/01/31 01:44:33;;;;;;;41.90;33.08;;;5.90;96.10;;;;;;6276538;22;20023;-89
2024/01/31 01:47:00;;;;;;;42.33;31.45;;;6.00;96.10;;;;;;6277474;22;19999;-89
2024/01/31 01:49:26;;;;;;;43.67;31.13;;;6.00;96.00;;;;;;6250203;22;20015;-89
2024/01/31 01:51:53;;;;;;;42.05;31.80;;;6.10;96.00;;;;;;6276900;22;20010;-88
2024/01/31 01:54:20;;;;;;;40.50;30.70;;;6.10;95.90;;;;;;6276769;22;20122;-89
2024/01/31 01:56:47;;;;;;;41.58;30.80;;;6.20;95.80;;;;;;6277083;22;20018;-89
2024/01/31 01:59:14;;;;;;;46.25;32.78;;;6.20;95.70;;;;;;6276864;22;20409;-91
2024/01/31 02:01:41;;;;;;;39.72;31.65;;;6.20;95.70;;;;;;6277182;22;20003;-92
2024/01/31 02:04:08;;;;;;;44.63;32.20;;;6.20;95.70;;;;;;6276931;22;19999;-91
2024/01/31 02:06:34;;;;;;;42.47;32.28;;;6.30;95.50;;;;;;6249942;22;20000;-89
2024/01/31 02:09:00;;;;;;;40.50;31.55;;;6.30;95.50;;;;;;6249259;22;20065;-90
2024/01/31 02:11:26;;;;;;;42.80;32.45;;;6.30;95.50;;;;;;6249416;22;20050;-89
2024/01/31 02:13:51;;;;;;;43.05;32.40;;;6.30;95.30;;;;;;6276217;22;20004;-89
2024/01/31 02:16:17;;;;;;;43.28;33.28;;;6.20;95.40;;;;;;6249332;22;20008;-91
2024/01/31 02:18:43;;;;;;;43.10;33.08;;;6.20;95.60;;;;;;6248881;22;20022;-88
2024/01/31 02:21:09;;;;;;;40.35;32.00;;;6.20;95.50;;;;;;6249041;22;20306;-88
2024/01/31 02:23:34;;;;;;;45.05;34.47;;;6.20;95.50;;;;;;6276225;22;20382;-88
2024/01/31 02:26:00;;;;;;;43.95;32.35;;;6.20;95.60;;;;;;6248919;22;20004;-88
2024/01/31 02:28:26;;;;;;;45.72;32.83;;;6.20;95.60;;;;;;6247379;22;20022;-89
2024/01/31 02:30:52;;;;;;;44.65;32.88;;;6.10;95.60;;;;;;6275952;22;19996;-87
2024/01/31 02:33:17;;;;;;;40.33;30.45;;;6.20;95.50;;;;;;6276408;22;20564;-88
2024/01/31 02:35:43;;;;;;;42.83;32.60;;;6.10;95.50;;;;;;6276408;22;20000;-88
2024/01/31 02:38:09;;;;;;;44.08;33.95;;;6.00;95.50;;;;;;6276780;22;20003;-88
2024/01/31 02:40:34;;;;;;;44.58;33.00;;;6.00;95.60;;;;;;6276360;22;20003;-88
2024/01/31 02:43:00;;;;;;;43.55;33.50;;;6.00;95.70;;;;;;6275990;22;20418;-88
2024/01/31 02:45:27;;;;;;;47.15;33.47;;;6.00;95.60;;;;;;6249537;22;20307;-88
2024/01/31 02:47:53;;;;;;;45.17;33.28;;;6.00;95.50;;;;;;6275997;22;20007;-89
2024/01/31 02:50:19;;;;;;;49.85;35.88;;;6.00;95.50;;;;;;6275856;22;20008;-88
2024/01/31 02:52:45;;;;;;;41.53;33.28;;;6.00;95.50;;;;;;6276069;22;20509;-88
2024/01/31 02:55:11;;;;;;;42.33;32.53;;;6.00;95.50;;;;;;6276209;22;20003;-88
2024/01/31 02:57:36;;;;;;;42.45;32.63;;;6.10;95.50;;;;;;6249097;22;20011;-89
2024/01/31 03:00:04;;;;;;;42.33;32.30;;;6.10;95.40;;;;;;6277000;22;20026;-88
2024/01/31 03:02:30;;;;;;;45.28;32.47;;;6.00;95.30;;;;;;6276198;22;20071;-88
2024/01/31 03:04:55;;;;;;;41.78;32.88;;;6.00;95.40;;;;;;6276387;22;20374;-88
2024/01/31 03:07:21;;;;;;;41.35;31.38;;;6.00;95.50;;;;;;6275447;22;19996;-88
2024/01/31 03:09:47;;;;;;;40.42;30.63;;;6.00;95.30;;;;;;6248663;22;20003;-87
2024/01/31 03:12:12;;;;;;;41.63;32.70;;;6.00;95.20;;;;;;6275967;22;20006;-88
2024/01/31 03:14:38;;;;;;;39.47;30.95;;;6.00;95.40;;;;;;6276126;22;20070;-88
2024/01/31 03:17:04;;;;;;;36.13;29.92;;;6.00;95.30;;;;;;6276298;22;20000;-88
2024/01/31 03:19:33;;;;;;;39.05;30.75;;;6.00;95.40;;;;;;6276269;22;20035;-88
2024/01/31 03:21:58;;;;;;;39.13;28.90;;;5.90;95.30;;;;;;6249032;22;20007;-88
2024/01/31 03:24:25;;;;;;;36.13;29.58;;;5.90;95.30;;;;;;6275992;22;20000;-88
2024/01/31 03:26:51;;;;;;;41.17;31.30;;;5.80;95.40;;;;;;6276053;22;19995;-88
2024/01/31 03:29:17;;;;;;;38.17;30.00;;;5.80;95.40;;;;;;6275863;22;20004;-88
2024/01/31 03:31:43;;;;;;;42.10;31.90;;;5.70;95.40;;;;;;6275689;22;20004;-88
2024/01/31 03:34:08;;;;;;;41.88;31.58;;;5.70;95.40;;;;;;6277495;22;20007;-88
2024/01/31 03:36:35;;;;;;;38.20;28.60;;;5.70;95.40;;;;;;6277756;22;20000;-89
2024/01/31 03:39:01;;;;;;;36.05;28.67;;;5.60;95.40;;;;;;6250848;22;20634;-88
2024/01/31 03:41:27;;;;;;;42.28;31.25;;;5.60;95.40;;;;;;6278402;22;19999;-88
2024/01/31 03:43:54;;;;;;;38.05;30.20;;;5.60;95.60;;;;;;6251297;22;20007;-88
2024/01/31 03:46:20;;;;;;;35.95;29.00;;;5.60;95.60;;;;;;6277539;22;20023;-88
2024/01/31 03:48:45;;;;;;;40.25;30.27;;;5.50;95.50;;;;;;6250246;22;20003;-88
2024/01/31 03:51:21;;;;;;;42.30;29.02;;;5.50;95.60;;;;;;6277567;22;20027;-88
2024/01/31 03:53:48;;;;;;;40.45;30.98;;;5.50;95.50;;;;;;6277399;22;20034;-88
2024/01/31 03:56:14;;;;;;;41.13;30.80;;;5.50;95.50;;;;;;6277168;22;20004;-88
2024/01/31 03:58:40;;;;;;;45.45;32.25;;;5.50;95.50;;;;;;6276955;22;20072;-88
2024/01/31 04:01:06;;;;;;;42.38;31.33;;;5.50;95.50;;;;;;6276850;22;19996;-88
2024/01/31 04:03:32;;;;;;;38.85;29.83;;;5.50;95.60;;;;;;6276585;22;20050;-88
2024/01/31 04:05:57;;;;;;;38.78;30.00;;;5.50;95.60;;;;;;6276972;22;19995;-88
2024/01/31 04:08:23;;;;;;;38.20;28.13;;;5.50;95.60;;;;;;6277255;22;20322;-88
2024/01/31 04:10:49;;;;;;;40.88;31.05;;;5.50;95.50;;;;;;6278096;22;20457;-85
2024/01/31 04:13:14;;;;;;;38.17;29.55;;;5.40;95.50;;;;;;6277394;22;19996;-85
2024/01/31 04:15:40;;;;;;;39.60;30.65;;;5.40;95.60;;;;;;6277697;22;20000;-86
2024/01/31 04:18:07;;;;;;;34.78;26.73;;;5.40;95.60;;;;;;6277397;22;20071;-85
2024/01/31 04:20:39;;;;;;;36.60;28.85;;;5.30;95.60;;;;;;6278174;22;20007;-85
2024/01/31 04:23:06;;;;;;;42.88;30.55;;;5.30;95.60;;;;;;6277501;22;20002;-85
2024/01/31 04:25:32;;;;;;;44.22;31.95;;;5.30;95.80;;;;;;6277700;22;19999;-85
2024/01/31 04:27:58;;;;;;;40.03;29.27;;;5.40;95.80;;;;;;6277254;22;20402;-85
2024/01/31 04:30:23;;;;;;;42.15;31.05;;;5.40;95.70;;;;;;6277946;22;20015;-85
2024/01/31 04:32:49;;;;;;;36.38;28.75;;;5.50;95.70;;;;;;6277525;22;20363;-85
2024/01/31 04:35:15;;;;;;;37.95;28.98;;;5.50;95.50;;;;;;6277660;22;20000;-85
2024/01/31 04:37:40;;;;;;;39.83;31.38;;;5.50;95.60;;;;;;6277482;22;20325;-86
2024/01/31 04:40:07;;;;;;;43.92;32.25;;;5.50;95.60;;;;;;6277563;22;20008;-85
2024/01/31 04:42:32;;;;;;;42.17;30.83;;;5.60;95.60;;;;;;6276897;22;20050;-86
2024/01/31 04:45:00;;;;;;;38.13;29.15;;;5.60;95.40;;;;;;6277023;22;20425;-88
2024/01/31 04:47:25;;;;;;;40.88;30.90;;;5.60;95.30;;;;;;6282289;22;20011;-88
2024/01/31 04:49:59;;;;;;;39.83;30.50;;;5.60;95.40;;;;;;6251288;22;20094;-88
2024/01/31 04:52:25;;;;;;;38.20;29.70;;;5.50;95.40;;;;;;6278475;22;20299;-88
2024/01/31 04:54:51;;;;;;;37.95;29.48;;;5.50;95.50;;;;;;6250412;22;20146;-88
2024/01/31 04:57:17;;;;;;;39.90;29.92;;;5.50;95.50;;;;;;6278955;22;19995;-89
2024/01/31 04:59:43;;;;;;;40.33;31.30;;;5.50;95.60;;;;;;6278342;22;20497;-88
2024/01/31 05:02:09;;;;;;;40.70;32.08;;;5.50;95.80;;;;;;6277433;22;20034;-88
2024/01/31 05:04:36;;;;;;;43.63;32.70;;;5.50;95.70;;;;;;6277059;22;20170;-88
2024/01/31 05:07:02;;;;;;;39.50;29.55;;;5.50;95.80;;;;;;6276678;22;19995;-88
2024/01/31 05:09:27;;;;;;;44.55;32.10;;;5.50;95.60;;;;;;6249807;22;20365;-88
2024/01/31 05:11:53;;;;;;;44.97;32.00;;;5.50;95.60;;;;;;6276963;22;20303;-88
2024/01/31 05:14:19;;;;;;;39.05;29.90;;;5.50;95.50;;;;;;6277396;22;20003;-88
2024/01/31 05:16:44;;;;;;;39.10;30.75;;;5.50;95.60;;;;;;6276921;22;20007;-88
2024/01/31 05:19:13;;;;;;;43.97;32.65;;;5.50;95.70;;;;;;6250179;22;20019;-88
2024/01/31 05:21:49;;;;;;;41.53;31.63;;;5.50;95.70;;;;;;6277079;22;20430;-87
2024/01/31 05:24:15;;;;;;;45.88;33.35;;;5.50;95.70;;;;;;6250187;22;20027;-88
2024/01/31 05:26:45;;;;;;;40.70;31.58;;;5.50;95.70;;;;;;6277096;22;20057;-88
2024/01/31 05:29:10;;;;;;;41.97;31.13;;;5.50;95.60;;;;;;6276711;22;20087;-88
2024/01/31 05:31:36;;;;;;;43.20;32.13;;;5.60;95.60;;;;;;6275844;22;20447;-89
2024/01/31 05:34:02;;;;;;;37.85;27.10;;;5.50;95.40;;;;;;6276700;22;20065;-88
2024/01/31 05:36:28;;;;;;;39.33;30.85;;;5.50;95.50;;;;;;6276485;22;20000;-88
2024/01/31 05:38:53;;;;;;;41.10;31.33;;;5.40;95.60;;;;;;6276763;22;19999;-88
2024/01/31 05:41:19;;;;;;;41.15;32.28;;;5.40;95.60;;;;;;6249703;22;20011;-87
2024/01/31 05:43:45;;;;;;;40.78;30.50;;;5.40;95.70;;;;;;6276997;22;20000;-93
2024/01/31 05:46:15;;;;;;;39.83;30.15;;;5.30;95.70;;;;;;6276442;22;20019;-91
2024/01/31 05:48:42;;;;;;;37.72;28.45;;;5.30;95.80;;;;;;6277559;22;20075;-88
2024/01/31 05:51:08;;;;;;;38.92;31.48;;;5.30;95.80;;;;;;6276730;22;20000;-94
2024/01/31 05:53:33;;;;;;;43.97;32.40;;;5.20;95.90;;;;;;6249153;22;20004;-90
2024/01/31 05:55:59;;;;;;;43.40;32.53;;;5.20;95.90;;;;;;6276222;22;20071;-90
2024/01/31 05:58:25;;;;;;;40.05;30.17;;;5.20;96.00;;;;;;6249350;22;20000;-90
2024/01/31 06:00:52;;;;;;;46.30;33.42;;;5.20;95.90;;;;;;6276409;22;20012;-90
2024/01/31 06:03:17;;;;;;;40.15;31.17;;;5.20;95.90;;;;;;6278645;22;20703;-90
2024/01/31 06:05:43;;;;;;;38.88;30.33;;;5.20;95.90;;;;;;6279016;22;20000;-90
2024/01/31 06:08:09;;;;;;;39.25;31.05;;;5.10;95.80;;;;;;6278305;22;20030;-90
2024/01/31 06:10:34;;;;;;;38.60;29.35;;;5.10;95.90;;;;;;6251043;22;20326;-93
2024/01/31 06:13:00;;;;;;;42.35;31.63;;;5.10;95.90;;;;;;6251284;22;20006;-91
2024/01/31 06:15:26;;;;;;;40.25;29.88;;;5.00;95.90;;;;;;6278339;22;20098;-92
2024/01/31 06:17:52;;;;;;;37.20;28.48;;;5.10;95.90;;;;;;6279333;22;20479;-93
2024/01/31 06:20:19;;;;;;;41.13;31.02;;;5.00;95.90;;;;;;6278559;22;20000;-92
2024/01/31 06:22:44;;;;;;;40.58;32.05;;;5.00;96.00;;;;;;6278535;22;20434;-95
2024/01/31 06:25:10;;;;;;;40.72;31.05;;;5.00;96.10;;;;;;6250876;22;20007;-90
2024/01/31 06:27:37;;;;;;;42.05;31.00;;;5.10;96.10;;;;;;6278221;22;20003;-90
2024/01/31 06:30:04;;;;;;;42.28;32.00;;;5.20;96.10;;;;;;6278320;22;20004;-91
2024/01/31 06:32:35;;;;;;;39.35;31.27;;;5.20;95.90;;;;;;6252604;22;20014;-91
2024/01/31 06:35:01;;;;;;;42.25;31.85;;;5.20;95.80;;;;;;6251304;22;20369;-90
2024/01/31 06:37:28;;;;;;;39.80;30.35;;;5.10;95.80;;;;;;6277979;22;20334;-90
2024/01/31 06:39:54;;;;;;;44.22;33.22;;;5.10;95.80;;;;;;6251873;22;20004;-89
2024/01/31 06:42:20;;;;;;;39.80;29.20;;;5.10;95.90;;;;;;6278585;22;20074;-90
2024/01/31 06:44:46;;;;;;;40.08;29.25;;;5.00;95.80;;;;;;6278028;22;20075;-90
2024/01/31 06:47:12;;;;;;;37.17;27.95;;;4.90;95.80;;;;;;6278768;22;19995;-93
2024/01/31 06:49:38;;;;;;;42.55;32.30;;;4.80;95.90;;;;;;6251201;22;20016;-88
2024/01/31 06:52:06;;;;;;;43.88;32.25;;;4.80;96.00;;;;;;6277935;22;19999;-88
2024/01/31 06:54:31;;;;;;;43.60;31.60;;;4.80;96.10;;;;;;6277333;22;20004;-88
2024/01/31 06:56:57;;;;;;;43.85;32.47;;;5.00;96.10;;;;;;6277790;22;20444;-89
2024/01/31 06:59:23;;;;;;;43.25;32.72;;;5.00;96.00;;;;;;6277637;22;20010;-89
2024/01/31 07:01:49;;;;;;;41.22;31.02;;;5.00;95.90;;;;;;6277299;22;19999;-88
2024/01/31 07:04:15;;;;;;;37.88;29.15;;;5.10;95.80;;;;;;6276539;22;20003;-87
2024/01/31 07:06:40;;;;;;;41.85;30.13;;;5.10;96.20;;;;;;6276544;22;20449;-88
2024/01/31 07:09:06;;;;;;;41.33;30.08;;;5.20;95.90;;;;;;6279508;22;20007;-89
2024/01/31 07:11:31;;;;;;;40.80;30.35;;;5.20;95.80;;;;;;6280512;22;20440;-87
2024/01/31 07:13:57;;;;;;;39.20;29.15;;;5.20;95.80;;;;;;6280365;22;20369;-87
2024/01/31 07:16:23;;;;;;;42.13;31.42;;;5.20;95.70;;;;;;6281045;22;20010;-89
2024/01/31 07:18:49;;;;;;;42.83;32.65;;;5.20;95.60;;;;;;6280096;22;20017;-89
2024/01/31 07:21:24;;;;;;;38.90;30.25;;;5.30;95.70;;;;;;6281005;22;20004;-88
2024/01/31 07:23:50;;;;;;;38.55;30.00;;;5.30;95.70;;;;;;6281357;22;20121;-88
2024/01/31 07:26:23;;;;;;;41.47;31.00;;;5.40;95.60;;;;;;6280306;22;20000;-88
2024/01/31 07:28:50;;;;;;;38.00;29.08;;;5.40;95.40;;;;;;6253114;22;20014;-88
2024/01/31 07:31:16;;;;;;;40.65;31.13;;;5.40;95.30;;;;;;6279568;22;20083;-88
2024/01/31 07:33:41;;;;;;;41.95;32.25;;;5.30;95.40;;;;;;6279892;22;20331;-88
2024/01/31 07:36:07;;;;;;;39.70;31.15;;;5.30;95.50;;;;;;6252842;22;20008;-88
2024/01/31 07:38:33;;;;;;;41.50;31.45;;;5.30;95.50;;;;;;6279717;22;20333;-88
2024/01/31 07:40:59;;;;;;;42.15;32.33;;;5.30;95.50;;;;;;6279653;22;20057;-88
2024/01/31 07:43:25;;;;;;;42.90;32.63;;;5.30;95.50;;;;;;6253041;22;20480;-88
2024/01/31 07:45:51;;;;;;;39.97;31.02;;;5.30;95.50;;;;;;6280251;22;19995;-88
2024/01/31 07:48:17;;;;;;;45.35;32.60;;;5.30;95.60;;;;;;6283679;22;20087;-87
2024/01/31 07:50:43;;;;;;;41.13;31.88;;;5.40;95.60;;;;;;6283068;22;20081;-88
2024/01/31 07:53:08;;;;;;;45.85;34.03;;;5.40;95.60;;;;;;6281381;22;20007;-88
2024/01/31 07:55:35;;;;;;;40.13;30.35;;;5.40;95.50;;;;;;6279286;22;20010;-88
2024/01/31 07:58:00;;;;;;;43.05;31.67;;;5.40;95.50;;;;;;6279196;22;20031;-89
2024/01/31 08:00:27;;;;;;;37.85;28.67;;;5.40;95.50;;;;;;6251658;22;20030;-88
2024/01/31 08:02:52;;;;;;;53.65;40.53;;;5.40;95.40;;;;;;6279377;22;20053;-89
2024/01/31 08:05:18;;;;;;;41.92;32.25;;;5.40;95.40;;;;;;6279609;22;20050;-90
2024/01/31 08:07:45;;;;;;;42.47;30.92;;;5.40;95.60;;;;;;6281787;22;19996;-90
2024/01/31 08:10:12;;;;;;;37.17;27.42;;;5.40;95.40;;;;;;6255040;22;20003;-90
2024/01/31 08:12:39;;;;;;;37.78;28.90;;;5.40;95.30;;;;;;6281412;22;20091;-89
2024/01/31 08:15:05;;;;;;;55.45;40.75;;;5.40;95.30;;;;;;6281140;22;20058;-90
2024/01/31 08:17:30;;;;;;;42.50;32.33;;;5.30;95.20;;;;;;6253688;22;20145;-90
2024/01/31 08:19:56;;;;;;;49.75;36.90;;;5.20;95.50;;;;;;6278088;22;20073;-90
2024/01/31 08:22:22;;;;;;;45.75;33.58;;;5.20;95.50;;;;;;6251437;22;20007;-90
2024/01/31 08:24:47;;;;;;;44.80;34.63;;;5.10;95.50;;;;;;6279131;22;20071;-90
2024/01/31 08:27:13;;;;;;;63.78;47.40;;;5.00;95.60;;;;;;6279786;22;20075;-90
2024/01/31 08:29:39;;;;;;;42.22;31.42;;;4.90;95.90;;;;;;6252154;22;20004;-90
2024/01/31 08:32:05;;;;;;;43.70;32.20;;;5.00;96.00;;;;;;6279197;22;20003;-89
2024/01/31 08:34:30;;;;;;;41.90;32.03;;;5.10;96.00;;;;;;6251299;22;20035;-89
2024/01/31 08:36:56;;;;;;;40.85;30.80;;;5.30;95.90;;;;;;6279739;22;20065;-90
2024/01/31 08:39:22;;;;;;;39.55;30.58;;;5.40;95.70;;;;;;6251795;22;20061;-89
2024/01/31 08:41:48;;;;;;;44.95;34.08;;;5.50;95.70;;;;;;6279561;22;19995;-89
2024/01/31 08:44:15;;;;;;;62.25;43.53;;;5.60;95.50;;;;;;6280228;22;20003;-90
2024/01/31 08:46:41;;;;;;;38.33;30.67;;;5.80;95.40;;;;;;6252753;22;20000;-90
2024/01/31 08:49:06;;;;;;;57.17;41.47;;;5.90;95.30;;;;;;6279777;22;20003;-89
2024/01/31 08:51:35;;;;;;;39.72;30.33;;;5.90;94.70;;;;;;6278539;22;20307;-90
2024/01/31 08:54:01;;;;;;;32.20;25.20;;;5.90;94.80;;;;;;6279757;22;20004;-90
2024/01/31 08:56:26;;;;;;;36.47;27.50;;;6.10;94.90;;;;;;6253232;22;20090;-90
2024/01/31 08:58:53;;;;;;;36.08;28.23;;;6.30;94.80;;;;;;6280146;22;20000;-89
2024/01/31 09:01:18;;;;;;;40.72;30.25;;;6.50;95.00;;;;;;6252403;22;20010;-89
2024/01/31 09:03:44;;;;;;;41.38;32.22;;;6.70;95.00;;;;;;6280016;22;20063;-89
2024/01/31 09:06:10;;;;;;;36.30;30.45;;;7.00;94.70;;;;;;6252893;22;20000;-89
2024/01/31 09:08:36;;;;;;;41.58;30.13;;;7.30;94.40;;;;;;6279450;22;20006;-89
2024/01/31 09:11:02;;;;;;;36.38;28.60;;;7.50;94.00;;;;;;6279326;22;19995;-89
2024/01/31 09:13:27;;;;;;;37.55;29.35;;;7.70;93.60;;;;;;6279555;22;20000;-90
2024/01/31 09:15:56;;;;;;;35.92;28.50;;;7.90;93.60;;;;;;6280145;22;20000;-89
2024/01/31 09:18:22;;;;;;;38.80;29.67;;;8.10;93.20;;;;;;6252703;22;20016;-91
2024/01/31 09:20:47;;;;;;;35.47;28.33;;;8.20;92.60;;;;;;6279282;22;20034;-89
2024/01/31 09:23:13;;;;;;;34.50;27.63;;;8.30;93.10;;;;;;6279984;22;19996;-89
2024/01/31 09:25:39;;;;;;;37.33;29.52;;;8.50;93.20;;;;;;6279627;22;20052;-90
2024/01/31 09:28:04;;;;;;;41.15;30.90;;;8.70;93.10;;;;;;6279421;22;20003;-94
2024/01/31 09:30:30;;;;;;;36.72;30.40;;;9.00;92.80;;;;;;6252548;22;20027;-92
2024/01/31 09:32:56;;;;;;;38.28;30.73;;;9.20;92.60;;;;;;6253059;22;20024;-93
2024/01/31 09:35:21;;;;;;;37.20;30.88;;;9.40;92.30;;;;;;6280079;22;20010;-91
2024/01/31 09:37:48;;;;;;;40.00;30.95;;;9.60;92.00;;;;;;6277809;22;20004;-91
2024/01/31 09:40:15;;;;;;;39.55;33.00;;;9.80;91.70;;;;;;6252232;22;20003;-92
2024/01/31 09:42:45;;;;;;;39.47;32.38;;;9.90;91.60;;;;;;6279608;22;20453;-92
2024/01/31 09:45:12;;;;;;;40.67;33.20;;;10.10;91.30;;;;;;6253051;22;20114;-92
2024/01/31 09:47:42;;;;;;;36.95;31.55;;;10.30;91.20;;;;;;6252163;22;20034;-91
2024/01/31 09:50:08;;;;;;;37.65;31.95;;;10.40;90.20;;;;;;6278969;22;20010;-92
2024/01/31 09:52:35;;;;;;;41.40;33.33;;;10.50;90.10;;;;;;6279628;22;20019;-92
2024/01/31 09:55:04;;;;;;;51.85;40.55;;;10.50;89.30;;;;;;6252521;22;20008;-91
2024/01/31 09:57:30;;;;;;;64.85;48.08;;;10.40;87.60;;;;;;6278836;22;20399;-92
2024/01/31 09:59:57;;;;;;;40.67;33.65;;;10.20;88.10;;;;;;6251758;22;20007;-92
2024/01/31 10:02:22;;;;;;;42.13;34.70;;;10.20;90.10;;;;;;6252692;22;20003;-91
2024/01/31 10:04:49;;;;;;;39.80;33.85;;;10.30;90.20;;;;;;6252346;22;20010;-91
2024/01/31 10:07:30;;;;;;;41.85;33.78;;;10.50;89.40;;;;;;6279656;22;20466;-91
2024/01/31 10:09:56;;;;;;;43.83;34.90;;;10.70;90.20;;;;;;6280004;22;20057;-91
2024/01/31 10:12:23;;;;;;;51.65;40.90;;;10.90;90.20;;;;;;6279580;22;20007;-91
2024/01/31 10:14:52;;;;;;;45.72;37.65;;;11.20;87.90;;;;;;6252533;22;20004;-91
2024/01/31 10:17:23;;;;;;;58.10;48.67;;;11.30;88.10;;;;;;6280269;22;20011;-91
2024/01/31 10:19:49;;;;;;;44.30;36.28;;;11.20;85.40;;;;;;6279768;22;20063;-91
2024/01/31 10:22:16;;;;;;;59.60;44.17;;;11.00;86.50;;;;;;6280002;22;20445;-91
2024/01/31 10:24:51;;;;;;;52.42;42.95;;;10.70;85.80;;;;;;6252990;22;20057;-90
2024/01/31 10:27:20;;;;;;;38.60;32.60;;;10.70;86.40;;;;;;6279870;22;20430;-90
2024/01/31 10:29:46;;;;;;;46.15;37.22;;;10.70;87.70;;;;;;6278983;22;20422;-90
2024/01/31 10:32:15;;;;;;;43.17;36.40;;;10.90;87.90;;;;;;6278900;22;20081;-91
2024/01/31 10:34:42;;;;;;;38.35;31.27;;;11.20;87.20;;;;;;6279295;22;20061;-90
2024/01/31 10:37:09;;;;;;;40.70;33.90;;;11.30;86.20;;;;;;6278531;22;20008;-91
2024/01/31 10:39:37;;;;;;;36.67;31.30;;;11.50;85.10;;;;;;6251214;22;20004;-90
2024/01/31 10:42:05;;;;;;;40.42;33.55;;;11.70;87.10;;;;;;6278253;22;20018;-90
2024/01/31 10:44:32;;;;;;;40.70;33.60;;;11.90;86.70;;;;;;6251407;22;20326;-90
2024/01/31 10:46:57;;;;;;;40.40;33.13;;;12.30;86.50;;;;;;6251513;22;20051;-90
2024/01/31 10:49:23;;;;;;;39.38;33.55;;;12.70;85.80;;;;;;6252254;22;20381;-90
2024/01/31 10:51:52;;;;;;;40.28;33.70;;;12.90;84.90;;;;;;6251651;22;20091;-90
2024/01/31 10:54:24;;;;;;;43.42;34.20;;;13.30;84.20;;;;;;6279520;22;20027;-90
2024/01/31 10:56:52;;;;;;;43.60;35.10;;;13.50;83.70;;;;;;6279090;22;19999;-90
2024/01/31 10:59:18;;;;;;;42.10;35.17;;;13.80;83.10;;;;;;6278985;22;20027;-90
2024/01/31 11:01:52;;;;;;;41.22;34.75;;;14.00;82.50;;;;;;6278098;22;20442;-89
2024/01/31 11:04:18;;;;;;;44.50;35.13;;;14.30;81.80;;;;;;6278156;22;20079;-90
2024/01/31 11:06:49;;;;;;;43.00;34.15;;;14.50;81.00;;;;;;6250629;22;20010;-90
2024/01/31 11:09:24;;;;;;;42.75;35.78;;;14.60;80.30;;;;;;6251978;22;20073;-91
2024/01/31 11:12:12;;;;;;;41.13;33.75;;;14.80;79.60;;;;;;6252045;22;20007;-91
2024/01/31 11:14:40;;;;;;;41.22;34.85;;;15.00;78.80;;;;;;6278966;22;20030;-91
2024/01/31 11:17:10;;;;;;;41.67;35.13;;;15.10;78.10;;;;;;6278679;22;20004;-91
2024/01/31 11:20:03;;;;;;;44.63;36.40;;;15.20;77.40;;;;;;6279148;22;20426;-91
2024/01/31 11:22:28;;;;;;;38.55;32.90;;;15.40;71.90;;;;;;6272557;22;20004;-91
2024/01/31 11:24:59;;;;;;;40.13;33.88;;;15.30;75.10;;;;;;6278056;22;20000;-91
2024/01/31 11:27:28;;;;;;;40.72;34.42;;;15.40;75.20;;;;;;6278863;22;20003;-90
2024/01/31 11:29:55;;;;;;;45.17;35.78;;;15.60;75.10;;;;;;6278203;22;20027;-90
2024/01/31 11:32:21;;;;;;;39.03;31.00;;;15.60;69.70;;;;;;6278227;22;20071;-90
2024/01/31 11:35:04;;;;;;;37.85;32.45;;;15.50;73.10;;;;;;6250578;22;20370;-89
2024/01/31 11:37:30;;;;;;;43.38;30.92;;;15.60;73.20;;;;;;6278021;22;20003;-90
2024/01/31 11:39:56;;;;;;;38.38;28.67;;;15.70;71.50;;;;;;6250844;22;20008;-90
2024/01/31 11:42:22;;;;;;;47.47;36.95;;;15.70;68.90;;;;;;6277978;22;20000;-90
2024/01/31 11:44:48;;;;;;;38.17;30.05;;;15.70;68.70;;;;;;6278704;22;19995;-89
2024/01/31 11:47:15;;;;;;;42.53;33.47;;;15.60;68.80;;;;;;6278821;22;19996;-91
2024/01/31 11:49:40;;;;;;;39.92;33.28;;;15.70;71.50;;;;;;6278825;22;20031;-91
2024/01/31 11:52:06;;;;;;;42.45;34.03;;;15.90;71.20;;;;;;6251568;22;20015;-92
2024/01/31 11:54:32;;;;;;;40.95;32.97;;;16.30;71.40;;;;;;6278549;22;20049;-92
2024/01/31 11:56:57;;;;;;;40.13;34.00;;;17.10;71.00;;;;;;6280414;22;20010;-91
2024/01/31 11:59:23;;;;;;;40.63;32.60;;;18.20;68.70;;;;;;6253710;22;20544;-93
2024/01/31 12:01:49;;;;;;;40.13;32.63;;;19.20;66.00;;;;;;6281053;22;19999;-92
2024/01/31 12:04:15;;;;;;;39.28;32.40;;;20.10;64.00;;;;;;6280748;22;20074;-90
2024/01/31 12:06:41;;;;;;;46.05;33.67;;;20.90;61.30;;;;;;6280323;22;19996;-91
2024/01/31 12:09:07;;;;;;;42.38;32.88;;;21.60;58.50;;;;;;6280934;22;20055;-91
2024/01/31 12:11:33;;;;;;;41.40;32.92;;;22.10;56.60;;;;;;6280598;22;20307;-92
2024/01/31 12:13:58;;;;;;;39.75;33.78;;;22.60;55.20;;;;;;6253515;22;20050;-92
2024/01/31 12:16:24;;;;;;;41.65;34.55;;;23.10;52.70;;;;;;6253943;22;20008;-91
2024/01/31 12:19:00;;;;;;;43.75;34.13;;;23.40;52.20;;;;;;6280228;22;20022;-92
2024/01/31 12:21:26;;;;;;;40.47;33.47;;;23.60;51.00;;;;;;6280322;22;20025;-92
2024/01/31 12:23:52;;;;;;;41.95;35.78;;;23.60;50.50;;;;;;6280485;22;20023;-92
2024/01/31 12:26:19;;;;;;;43.00;36.50;;;23.70;50.20;;;;;;6279591;22;20003;-93
2024/01/31 12:28:55;;;;;;;40.67;32.45;;;23.70;49.70;;;;;;6280518;22;19999;-92
2024/01/31 12:31:21;;;;;;;41.92;33.63;;;23.80;49.60;;;;;;6279505;22;20300;-92
2024/01/31 12:33:47;;;;;;;46.42;35.53;;;24.00;49.00;;;;;;6252799;22;20082;-92